Marshfield, Wisconsin
Current Conditions -  °F | °C
As of 1:54 AM on Thursday 27 Nov 2014 (Local Time) from KMFI Reporting Station
Light Snow Light Snow  
Wind Chill:   Ceiling: 10000
Heat Index: 18°   Visibility: 6mi
Dew Point: 12°   Wind: 14mph
Humidity: 78%   Direction: 330°NNW
Pressure: 30.25"   Gusts: NA
Location:  44.67°N, 90.17°W
Report Text: KMFI 270754Z AUTO 33012KT 6SM -SN FEW041 FEW080 OVC100 M08/M11 A3025 RMK AO2 SLP266 P0000 T10781111
Loading
Personal Weather Stations






























Interactive Weather Map New forecast layout! Learn more

10-Day Weather Forecast

Advertisements
Track Severe Weather on mobile